sensor_id;sensor_type;location;lat;lon;timestamp;P1;durP1;ratioP1;P2;durP2;ratioP2
80322;SDS011;69636;52.372;13.610;2023-11-21T00:00:00;6.88;;;4.13;;
80322;SDS011;69636;52.372;13.610;2023-11-21T00:02:29;5.68;;;2.47;;
80322;SDS011;69636;52.372;13.610;2023-11-21T00:04:56;6.80;;;2.38;;
80322;SDS011;69636;52.372;13.610;2023-11-21T00:07:23;6.18;;;5.35;;
80322;SDS011;69636;52.372;13.610;2023-11-21T00:09:50;5.68;;;3.17;;
80322;SDS011;69636;52.372;13.610;2023-11-21T00:12:18;5.45;;;2.42;;
80322;SDS011;69636;52.372;13.610;2023-11-21T00:14:45;5.22;;;2.67;;
80322;SDS011;69636;52.372;13.610;2023-11-21T00:17:12;5.07;;;2.92;;
80322;SDS011;69636;52.372;13.610;2023-11-21T00:19:41;4.65;;;2.85;;
80322;SDS011;69636;52.372;13.610;2023-11-21T00:22:08;6.82;;;3.38;;
80322;SDS011;69636;52.372;13.610;2023-11-21T00:24:37;6.57;;;4.60;;
80322;SDS011;69636;52.372;13.610;2023-11-21T00:27:04;5.45;;;4.88;;
80322;SDS011;69636;52.372;13.610;2023-11-21T00:29:32;8.15;;;4.00;;
80322;SDS011;69636;52.372;13.610;2023-11-21T00:31:59;8.15;;;4.70;;
80322;SDS011;69636;52.372;13.610;2023-11-21T00:34:27;9.77;;;5.00;;
80322;SDS011;69636;52.372;13.610;2023-11-21T00:36:55;10.18;;;6.68;;
80322;SDS011;69636;52.372;13.610;2023-11-21T00:39:23;8.35;;;4.43;;
80322;SDS011;69636;52.372;13.610;2023-11-21T00:41:50;8.15;;;4.88;;
80322;SDS011;69636;52.372;13.610;2023-11-21T00:44:19;7.93;;;4.63;;
80322;SDS011;69636;52.372;13.610;2023-11-21T00:46:46;7.97;;;4.78;;
80322;SDS011;69636;52.372;13.610;2023-11-21T00:49:14;10.27;;;5.47;;
80322;SDS011;69636;52.372;13.610;2023-11-21T00:51:41;8.25;;;4.97;;
80322;SDS011;69636;52.372;13.610;2023-11-21T00:54:10;10.23;;;6.85;;
80322;SDS011;69636;52.372;13.610;2023-11-21T00:56:38;10.25;;;5.78;;
80322;SDS011;69636;52.372;13.610;2023-11-21T00:59:05;10.00;;;6.20;;
80322;SDS011;69636;52.372;13.610;2023-11-21T01:01:32;12.57;;;7.57;;
80322;SDS011;69636;52.372;13.610;2023-11-21T01:04:00;14.10;;;7.05;;
80322;SDS011;69636;52.372;13.610;2023-11-21T01:06:27;12.60;;;11.38;;
80322;SDS011;69636;52.372;13.610;2023-11-21T01:08:54;13.63;;;7.57;;
80322;SDS011;69636;52.372;13.610;2023-11-21T01:11:23;13.57;;;7.15;;
80322;SDS011;69636;52.372;13.610;2023-11-21T01:13:50;17.67;;;10.30;;
80322;SDS011;69636;52.372;13.610;2023-11-21T01:16:18;16.45;;;8.82;;
80322;SDS011;69636;52.372;13.610;2023-11-21T01:18:45;16.70;;;9.07;;
80322;SDS011;69636;52.372;13.610;2023-11-21T01:21:12;17.38;;;9.80;;
80322;SDS011;69636;52.372;13.610;2023-11-21T01:23:40;18.48;;;10.90;;
80322;SDS011;69636;52.372;13.610;2023-11-21T01:26:07;20.27;;;12.50;;
80322;SDS011;69636;52.372;13.610;2023-11-21T01:28:36;18.27;;;10.15;;
80322;SDS011;69636;52.372;13.610;2023-11-21T01:31:03;19.38;;;11.05;;
80322;SDS011;69636;52.372;13.610;2023-11-21T01:33:31;21.70;;;13.30;;
80322;SDS011;69636;52.372;13.610;2023-11-21T01:35:58;23.35;;;11.25;;
80322;SDS011;69636;52.372;13.610;2023-11-21T01:38:26;23.10;;;12.73;;
80322;SDS011;69636;52.372;13.610;2023-11-21T01:40:54;23.25;;;11.90;;
80322;SDS011;69636;52.372;13.610;2023-11-21T01:43:21;22.05;;;14.27;;
80322;SDS011;69636;52.372;13.610;2023-11-21T01:45:50;25.65;;;12.45;;
80322;SDS011;69636;52.372;13.610;2023-11-21T01:48:17;25.58;;;12.18;;
80322;SDS011;69636;52.372;13.610;2023-11-21T01:50:45;25.27;;;16.80;;
80322;SDS011;69636;52.372;13.610;2023-11-21T01:53:12;23.50;;;10.52;;
80322;SDS011;69636;52.372;13.610;2023-11-21T01:55:40;28.35;;;15.05;;
80322;SDS011;69636;52.372;13.610;2023-11-21T01:58:08;24.52;;;12.98;;
80322;SDS011;69636;52.372;13.610;2023-11-21T02:00:37;25.48;;;12.15;;
80322;SDS011;69636;52.372;13.610;2023-11-21T02:03:06;22.88;;;10.98;;
80322;SDS011;69636;52.372;13.610;2023-11-21T02:05:33;23.10;;;10.63;;
80322;SDS011;69636;52.372;13.610;2023-11-21T02:08:01;29.98;;;13.18;;
80322;SDS011;69636;52.372;13.610;2023-11-21T02:10:28;25.83;;;12.90;;
80322;SDS011;69636;52.372;13.610;2023-11-21T02:12:56;24.83;;;11.55;;
80322;SDS011;69636;52.372;13.610;2023-11-21T02:15:23;24.90;;;14.23;;
80322;SDS011;69636;52.372;13.610;2023-11-21T02:17:51;24.80;;;13.75;;
80322;SDS011;69636;52.372;13.610;2023-11-21T02:20:21;24.75;;;11.68;;
80322;SDS011;69636;52.372;13.610;2023-11-21T02:22:50;22.25;;;11.73;;
80322;SDS011;69636;52.372;13.610;2023-11-21T02:25:18;20.42;;;11.82;;
80322;SDS011;69636;52.372;13.610;2023-11-21T02:27:46;24.45;;;13.10;;
80322;SDS011;69636;52.372;13.610;2023-11-21T02:30:14;22.92;;;11.00;;
80322;SDS011;69636;52.372;13.610;2023-11-21T02:32:41;20.38;;;9.73;;
80322;SDS011;69636;52.372;13.610;2023-11-21T02:35:15;22.02;;;12.13;;
80322;SDS011;69636;52.372;13.610;2023-11-21T02:37:43;22.80;;;11.52;;
80322;SDS011;69636;52.372;13.610;2023-11-21T02:40:12;21.10;;;10.80;;
80322;SDS011;69636;52.372;13.610;2023-11-21T02:42:39;24.80;;;13.00;;
80322;SDS011;69636;52.372;13.610;2023-11-21T02:45:07;23.60;;;11.88;;
80322;SDS011;69636;52.372;13.610;2023-11-21T02:47:35;19.98;;;11.43;;
80322;SDS011;69636;52.372;13.610;2023-11-21T02:50:03;23.60;;;10.90;;
80322;SDS011;69636;52.372;13.610;2023-11-21T02:52:30;25.77;;;12.48;;
80322;SDS011;69636;52.372;13.610;2023-11-21T02:54:58;26.30;;;12.70;;
80322;SDS011;69636;52.372;13.610;2023-11-21T02:57:26;22.77;;;10.25;;
80322;SDS011;69636;52.372;13.610;2023-11-21T02:59:54;26.63;;;11.00;;
80322;SDS011;69636;52.372;13.610;2023-11-21T03:02:21;29.30;;;12.00;;
80322;SDS011;69636;52.372;13.610;2023-11-21T03:04:49;25.15;;;10.90;;
80322;SDS011;69636;52.372;13.610;2023-11-21T03:07:16;22.92;;;12.27;;
80322;SDS011;69636;52.372;13.610;2023-11-21T03:09:44;22.00;;;9.35;;
80322;SDS011;69636;52.372;13.610;2023-11-21T03:12:11;23.08;;;11.13;;
80322;SDS011;69636;52.372;13.610;2023-11-21T03:14:40;19.42;;;11.45;;
80322;SDS011;69636;52.372;13.610;2023-11-21T03:17:07;23.63;;;12.25;;
80322;SDS011;69636;52.372;13.610;2023-11-21T03:19:35;21.58;;;8.88;;
80322;SDS011;69636;52.372;13.610;2023-11-21T03:22:02;18.15;;;9.60;;
80322;SDS011;69636;52.372;13.610;2023-11-21T03:24:30;19.63;;;9.57;;
80322;SDS011;69636;52.372;13.610;2023-11-21T03:26:57;18.25;;;7.95;;
80322;SDS011;69636;52.372;13.610;2023-11-21T03:29:26;18.92;;;10.32;;
80322;SDS011;69636;52.372;13.610;2023-11-21T03:31:54;17.67;;;8.57;;
80322;SDS011;69636;52.372;13.610;2023-11-21T03:34:23;16.98;;;8.55;;
80322;SDS011;69636;52.372;13.610;2023-11-21T03:36:51;16.63;;;9.45;;
80322;SDS011;69636;52.372;13.610;2023-11-21T03:39:19;15.07;;;8.23;;
80322;SDS011;69636;52.372;13.610;2023-11-21T03:41:47;15.73;;;10.55;;
80322;SDS011;69636;52.372;13.610;2023-11-21T03:44:14;18.45;;;8.68;;
80322;SDS011;69636;52.372;13.610;2023-11-21T03:46:41;15.57;;;7.85;;
80322;SDS011;69636;52.372;13.610;2023-11-21T03:49:10;14.75;;;8.02;;
80322;SDS011;69636;52.372;13.610;2023-11-21T03:51:37;14.07;;;7.88;;
80322;SDS011;69636;52.372;13.610;2023-11-21T03:54:05;12.07;;;8.88;;
80322;SDS011;69636;52.372;13.610;2023-11-21T03:56:32;14.18;;;9.55;;
80322;SDS011;69636;52.372;13.610;2023-11-21T03:59:00;13.15;;;8.55;;
80322;SDS011;69636;52.372;13.610;2023-11-21T04:01:27;15.20;;;8.40;;
80322;SDS011;69636;52.372;13.610;2023-11-21T04:03:54;13.85;;;7.85;;
80322;SDS011;69636;52.372;13.610;2023-11-21T04:06:23;12.35;;;9.20;;
80322;SDS011;69636;52.372;13.610;2023-11-21T04:08:50;11.60;;;9.55;;
80322;SDS011;69636;52.372;13.610;2023-11-21T04:11:18;14.02;;;8.07;;
80322;SDS011;69636;52.372;13.610;2023-11-21T04:13:45;11.60;;;7.90;;
80322;SDS011;69636;52.372;13.610;2023-11-21T04:16:12;12.25;;;6.63;;
80322;SDS011;69636;52.372;13.610;2023-11-21T04:18:40;13.15;;;6.72;;
80322;SDS011;69636;52.372;13.610;2023-11-21T04:21:07;11.98;;;6.30;;
80322;SDS011;69636;52.372;13.610;2023-11-21T04:23:36;10.85;;;7.00;;
80322;SDS011;69636;52.372;13.610;2023-11-21T04:26:04;9.00;;;5.72;;
80322;SDS011;69636;52.372;13.610;2023-11-21T04:28:31;9.88;;;6.72;;
80322;SDS011;69636;52.372;13.610;2023-11-21T04:30:58;8.85;;;5.63;;
80322;SDS011;69636;52.372;13.610;2023-11-21T04:33:26;8.95;;;5.93;;
80322;SDS011;69636;52.372;13.610;2023-11-21T04:35:53;10.10;;;6.63;;
80322;SDS011;69636;52.372;13.610;2023-11-21T04:38:20;9.32;;;6.05;;
80322;SDS011;69636;52.372;13.610;2023-11-21T04:40:49;9.15;;;5.70;;
80322;SDS011;69636;52.372;13.610;2023-11-21T04:43:17;9.25;;;4.78;;
80322;SDS011;69636;52.372;13.610;2023-11-21T04:45:44;8.55;;;6.55;;
80322;SDS011;69636;52.372;13.610;2023-11-21T04:48:12;9.63;;;6.45;;
80322;SDS011;69636;52.372;13.610;2023-11-21T04:50:39;7.28;;;4.55;;
80322;SDS011;69636;52.372;13.610;2023-11-21T04:53:06;9.38;;;6.13;;
80322;SDS011;69636;52.372;13.610;2023-11-21T04:55:33;10.85;;;5.90;;
80322;SDS011;69636;52.372;13.610;2023-11-21T04:58:02;8.57;;;4.90;;
80322;SDS011;69636;52.372;13.610;2023-11-21T05:00:29;6.47;;;4.13;;
80322;SDS011;69636;52.372;13.610;2023-11-21T05:02:57;8.30;;;4.65;;
80322;SDS011;69636;52.372;13.610;2023-11-21T05:05:24;9.25;;;5.30;;
80322;SDS011;69636;52.372;13.610;2023-11-21T05:07:52;8.48;;;5.30;;
80322;SDS011;69636;52.372;13.610;2023-11-21T05:10:19;7.78;;;6.82;;
80322;SDS011;69636;52.372;13.610;2023-11-21T05:12:46;8.15;;;4.75;;
80322;SDS011;69636;52.372;13.610;2023-11-21T05:15:15;7.20;;;4.03;;
80322;SDS011;69636;52.372;13.610;2023-11-21T05:17:43;6.35;;;5.03;;
80322;SDS011;69636;52.372;13.610;2023-11-21T05:22:40;6.00;;;3.97;;
80322;SDS011;69636;52.372;13.610;2023-11-21T05:25:08;6.65;;;5.47;;
80322;SDS011;69636;52.372;13.610;2023-11-21T05:27:35;5.95;;;4.35;;
80322;SDS011;69636;52.372;13.610;2023-11-21T05:30:03;9.05;;;5.07;;
80322;SDS011;69636;52.372;13.610;2023-11-21T05:32:33;6.38;;;4.50;;
80322;SDS011;69636;52.372;13.610;2023-11-21T05:35:00;7.78;;;5.75;;
80322;SDS011;69636;52.372;13.610;2023-11-21T05:37:28;6.95;;;4.63;;
80322;SDS011;69636;52.372;13.610;2023-11-21T05:39:55;7.78;;;5.57;;
80322;SDS011;69636;52.372;13.610;2023-11-21T05:42:23;7.45;;;5.28;;
80322;SDS011;69636;52.372;13.610;2023-11-21T05:44:50;7.80;;;6.03;;
80322;SDS011;69636;52.372;13.610;2023-11-21T05:47:18;8.80;;;6.03;;
80322;SDS011;69636;52.372;13.610;2023-11-21T05:49:47;9.02;;;8.18;;
80322;SDS011;69636;52.372;13.610;2023-11-21T05:52:14;8.57;;;6.03;;
80322;SDS011;69636;52.372;13.610;2023-11-21T05:54:41;8.15;;;5.95;;
80322;SDS011;69636;52.372;13.610;2023-11-21T05:57:09;11.55;;;8.70;;
80322;SDS011;69636;52.372;13.610;2023-11-21T05:59:36;11.85;;;8.98;;
80322;SDS011;69636;52.372;13.610;2023-11-21T06:02:03;12.25;;;7.63;;
80322;SDS011;69636;52.372;13.610;2023-11-21T06:04:31;9.20;;;5.72;;
80322;SDS011;69636;52.372;13.610;2023-11-21T06:06:59;9.52;;;7.32;;
80322;SDS011;69636;52.372;13.610;2023-11-21T06:09:27;8.77;;;7.38;;
80322;SDS011;69636;52.372;13.610;2023-11-21T06:11:54;7.18;;;5.63;;
80322;SDS011;69636;52.372;13.610;2023-11-21T06:14:21;8.57;;;6.43;;
80322;SDS011;69636;52.372;13.610;2023-11-21T06:16:48;7.63;;;5.70;;
80322;SDS011;69636;52.372;13.610;2023-11-21T06:19:16;7.80;;;4.82;;
80322;SDS011;69636;52.372;13.610;2023-11-21T06:21:45;7.95;;;5.07;;
80322;SDS011;69636;52.372;13.610;2023-11-21T06:24:14;7.38;;;5.97;;
80322;SDS011;69636;52.372;13.610;2023-11-21T06:26:41;7.68;;;5.00;;
80322;SDS011;69636;52.372;13.610;2023-11-21T06:29:08;9.93;;;6.10;;
80322;SDS011;69636;52.372;13.610;2023-11-21T06:31:36;7.65;;;6.85;;
80322;SDS011;69636;52.372;13.610;2023-11-21T06:34:03;8.60;;;5.57;;
80322;SDS011;69636;52.372;13.610;2023-11-21T06:36:30;7.97;;;5.65;;
80322;SDS011;69636;52.372;13.610;2023-11-21T06:38:58;8.38;;;6.60;;
80322;SDS011;69636;52.372;13.610;2023-11-21T06:41:26;8.73;;;5.30;;
80322;SDS011;69636;52.372;13.610;2023-11-21T06:43:54;7.53;;;5.25;;
80322;SDS011;69636;52.372;13.610;2023-11-21T06:46:21;7.30;;;6.13;;
80322;SDS011;69636;52.372;13.610;2023-11-21T06:48:48;7.70;;;4.60;;
80322;SDS011;69636;52.372;13.610;2023-11-21T06:51:16;7.75;;;5.32;;
80322;SDS011;69636;52.372;13.610;2023-11-21T06:53:43;8.27;;;5.53;;
80322;SDS011;69636;52.372;13.610;2023-11-21T06:56:15;10.75;;;5.65;;
80322;SDS011;69636;52.372;13.610;2023-11-21T06:58:44;10.02;;;6.10;;
80322;SDS011;69636;52.372;13.610;2023-11-21T07:01:12;9.38;;;6.43;;
80322;SDS011;69636;52.372;13.610;2023-11-21T07:03:40;13.23;;;5.80;;
80322;SDS011;69636;52.372;13.610;2023-11-21T07:06:08;9.43;;;5.80;;
80322;SDS011;69636;52.372;13.610;2023-11-21T07:08:35;8.48;;;4.88;;
80322;SDS011;69636;52.372;13.610;2023-11-21T07:11:03;9.32;;;5.43;;
80322;SDS011;69636;52.372;13.610;2023-11-21T07:13:30;8.50;;;5.72;;
80322;SDS011;69636;52.372;13.610;2023-11-21T07:15:59;9.25;;;5.80;;
80322;SDS011;69636;52.372;13.610;2023-11-21T07:18:26;9.50;;;6.45;;
80322;SDS011;69636;52.372;13.610;2023-11-21T07:20:54;10.20;;;7.65;;
80322;SDS011;69636;52.372;13.610;2023-11-21T07:23:21;7.47;;;5.60;;
80322;SDS011;69636;52.372;13.610;2023-11-21T07:25:48;8.20;;;5.22;;
80322;SDS011;69636;52.372;13.610;2023-11-21T07:28:16;9.38;;;7.60;;
80322;SDS011;69636;52.372;13.610;2023-11-21T07:30:43;8.57;;;6.93;;
80322;SDS011;69636;52.372;13.610;2023-11-21T07:33:12;8.75;;;6.43;;
80322;SDS011;69636;52.372;13.610;2023-11-21T07:35:39;8.48;;;5.53;;
80322;SDS011;69636;52.372;13.610;2023-11-21T07:38:06;8.50;;;6.32;;
80322;SDS011;69636;52.372;13.610;2023-11-21T07:40:34;7.97;;;5.50;;
80322;SDS011;69636;52.372;13.610;2023-11-21T07:43:01;9.40;;;7.93;;
80322;SDS011;69636;52.372;13.610;2023-11-21T07:45:29;8.20;;;5.15;;
80322;SDS011;69636;52.372;13.610;2023-11-21T07:47:56;10.07;;;6.60;;
80322;SDS011;69636;52.372;13.610;2023-11-21T07:50:25;8.50;;;7.00;;
80322;SDS011;69636;52.372;13.610;2023-11-21T07:52:52;9.32;;;6.63;;
80322;SDS011;69636;52.372;13.610;2023-11-21T07:55:19;9.70;;;8.25;;
80322;SDS011;69636;52.372;13.610;2023-11-21T07:57:47;11.00;;;7.05;;
80322;SDS011;69636;52.372;13.610;2023-11-21T08:00:14;8.20;;;5.82;;
80322;SDS011;69636;52.372;13.610;2023-11-21T08:02:42;8.55;;;5.55;;
80322;SDS011;69636;52.372;13.610;2023-11-21T08:05:10;9.98;;;7.40;;
80322;SDS011;69636;52.372;13.610;2023-11-21T08:07:51;9.43;;;7.32;;
80322;SDS011;69636;52.372;13.610;2023-11-21T08:10:19;10.35;;;6.03;;
80322;SDS011;69636;52.372;13.610;2023-11-21T08:12:46;11.40;;;6.53;;
80322;SDS011;69636;52.372;13.610;2023-11-21T08:15:13;10.45;;;6.25;;
80322;SDS011;69636;52.372;13.610;2023-11-21T08:17:41;11.50;;;7.22;;
80322;SDS011;69636;52.372;13.610;2023-11-21T08:20:09;12.85;;;7.55;;
80322;SDS011;69636;52.372;13.610;2023-11-21T08:22:37;11.02;;;6.40;;
80322;SDS011;69636;52.372;13.610;2023-11-21T08:25:06;9.55;;;6.22;;
80322;SDS011;69636;52.372;13.610;2023-11-21T08:27:34;10.32;;;6.90;;
80322;SDS011;69636;52.372;13.610;2023-11-21T08:30:02;9.07;;;6.07;;
80322;SDS011;69636;52.372;13.610;2023-11-21T08:32:29;11.35;;;6.90;;
80322;SDS011;69636;52.372;13.610;2023-11-21T08:34:57;9.73;;;5.43;;
80322;SDS011;69636;52.372;13.610;2023-11-21T08:37:24;9.43;;;4.90;;
80322;SDS011;69636;52.372;13.610;2023-11-21T08:39:52;8.50;;;7.68;;
80322;SDS011;69636;52.372;13.610;2023-11-21T08:42:21;6.95;;;4.57;;
80322;SDS011;69636;52.372;13.610;2023-11-21T08:44:48;8.75;;;5.85;;
80322;SDS011;69636;52.372;13.610;2023-11-21T08:47:15;7.32;;;4.85;;
80322;SDS011;69636;52.372;13.610;2023-11-21T08:49:43;7.68;;;4.75;;
80322;SDS011;69636;52.372;13.610;2023-11-21T08:52:10;7.57;;;6.25;;
80322;SDS011;69636;52.372;13.610;2023-11-21T08:54:38;7.82;;;5.75;;
80322;SDS011;69636;52.372;13.610;2023-11-21T08:57:06;7.78;;;4.30;;
80322;SDS011;69636;52.372;13.610;2023-11-21T08:59:34;8.65;;;4.40;;
80322;SDS011;69636;52.372;13.610;2023-11-21T09:02:02;9.23;;;5.72;;
80322;SDS011;69636;52.372;13.610;2023-11-21T09:04:29;10.18;;;8.00;;
80322;SDS011;69636;52.372;13.610;2023-11-21T09:06:56;7.45;;;4.63;;
80322;SDS011;69636;52.372;13.610;2023-11-21T09:09:24;8.30;;;4.95;;
80322;SDS011;69636;52.372;13.610;2023-11-21T09:11:51;5.32;;;4.05;;
80322;SDS011;69636;52.372;13.610;2023-11-21T09:14:18;6.30;;;4.78;;
80322;SDS011;69636;52.372;13.610;2023-11-21T09:16:47;7.50;;;4.65;;
80322;SDS011;69636;52.372;13.610;2023-11-21T09:19:15;7.05;;;4.80;;
80322;SDS011;69636;52.372;13.610;2023-11-21T09:21:42;5.40;;;4.28;;
80322;SDS011;69636;52.372;13.610;2023-11-21T09:24:09;8.27;;;5.00;;
80322;SDS011;69636;52.372;13.610;2023-11-21T09:26:36;5.80;;;4.30;;
80322;SDS011;69636;52.372;13.610;2023-11-21T09:29:04;5.97;;;4.55;;
80322;SDS011;69636;52.372;13.610;2023-11-21T09:31:31;6.70;;;4.53;;
80322;SDS011;69636;52.372;13.610;2023-11-21T09:34:00;6.65;;;3.88;;
80322;SDS011;69636;52.372;13.610;2023-11-21T09:36:27;6.45;;;4.70;;
80322;SDS011;69636;52.372;13.610;2023-11-21T09:38:55;6.70;;;4.65;;
80322;SDS011;69636;52.372;13.610;2023-11-21T09:41:23;5.72;;;3.92;;
80322;SDS011;69636;52.372;13.610;2023-11-21T09:43:59;5.97;;;4.13;;
80322;SDS011;69636;52.372;13.610;2023-11-21T09:46:29;5.75;;;4.38;;
80322;SDS011;69636;52.372;13.610;2023-11-21T09:48:57;6.65;;;5.38;;
80322;SDS011;69636;52.372;13.610;2023-11-21T09:51:29;5.10;;;3.75;;
80322;SDS011;69636;52.372;13.610;2023-11-21T09:53:58;5.35;;;3.85;;
80322;SDS011;69636;52.372;13.610;2023-11-21T09:56:28;5.00;;;3.25;;
80322;SDS011;69636;52.372;13.610;2023-11-21T09:58:55;4.13;;;3.25;;
80322;SDS011;69636;52.372;13.610;2023-11-21T10:01:23;4.53;;;4.13;;
80322;SDS011;69636;52.372;13.610;2023-11-21T10:03:52;4.40;;;3.83;;
80322;SDS011;69636;52.372;13.610;2023-11-21T10:06:21;4.13;;;3.30;;
80322;SDS011;69636;52.372;13.610;2023-11-21T10:08:48;5.68;;;3.95;;
80322;SDS011;69636;52.372;13.610;2023-11-21T10:11:22;4.10;;;2.88;;
80322;SDS011;69636;52.372;13.610;2023-11-21T10:13:52;4.18;;;3.45;;
80322;SDS011;69636;52.372;13.610;2023-11-21T10:16:20;5.80;;;5.10;;
80322;SDS011;69636;52.372;13.610;2023-11-21T10:18:51;5.03;;;4.53;;
80322;SDS011;69636;52.372;13.610;2023-11-21T10:21:21;3.90;;;3.25;;
80322;SDS011;69636;52.372;13.610;2023-11-21T10:23:48;4.95;;;3.58;;
80322;SDS011;69636;52.372;13.610;2023-11-21T10:28:57;4.15;;;3.75;;
80322;SDS011;69636;52.372;13.610;2023-11-21T10:31:25;4.13;;;3.65;;
80322;SDS011;69636;52.372;13.610;2023-11-21T10:33:54;3.33;;;3.03;;
80322;SDS011;69636;52.372;13.610;2023-11-21T10:36:28;3.72;;;2.97;;
80322;SDS011;69636;52.372;13.610;2023-11-21T10:38:56;3.17;;;2.53;;
80322;SDS011;69636;52.372;13.610;2023-11-21T10:41:23;3.28;;;2.97;;
80322;SDS011;69636;52.372;13.610;2023-11-21T10:43:52;4.05;;;3.00;;
80322;SDS011;69636;52.372;13.610;2023-11-21T10:46:20;4.20;;;3.88;;
80322;SDS011;69636;52.372;13.610;2023-11-21T10:48:51;4.03;;;2.92;;
80322;SDS011;69636;52.372;13.610;2023-11-21T10:51:20;3.75;;;3.17;;
80322;SDS011;69636;52.372;13.610;2023-11-21T10:53:49;4.32;;;3.03;;
80322;SDS011;69636;52.372;13.610;2023-11-21T10:56:16;2.42;;;1.50;;
80322;SDS011;69636;52.372;13.610;2023-11-21T10:58:45;3.58;;;3.10;;
80322;SDS011;69636;52.372;13.610;2023-11-21T11:01:13;2.90;;;2.05;;
80322;SDS011;69636;52.372;13.610;2023-11-21T11:03:44;2.78;;;2.20;;
80322;SDS011;69636;52.372;13.610;2023-11-21T11:06:12;6.72;;;6.13;;
80322;SDS011;69636;52.372;13.610;2023-11-21T11:08:40;2.70;;;2.33;;
80322;SDS011;69636;52.372;13.610;2023-11-21T11:11:09;2.97;;;2.47;;
80322;SDS011;69636;52.372;13.610;2023-11-21T11:13:37;3.45;;;3.15;;
80322;SDS011;69636;52.372;13.610;2023-11-21T11:16:05;3.10;;;1.88;;
80322;SDS011;69636;52.372;13.610;2023-11-21T11:18:33;3.95;;;3.30;;
80322;SDS011;69636;52.372;13.610;2023-11-21T11:21:01;4.35;;;3.95;;
80322;SDS011;69636;52.372;13.610;2023-11-21T11:23:43;3.30;;;2.20;;
80322;SDS011;69636;52.372;13.610;2023-11-21T11:26:24;5.20;;;3.40;;
80322;SDS011;69636;52.372;13.610;2023-11-21T11:29:00;3.67;;;1.98;;
80322;SDS011;69636;52.372;13.610;2023-11-21T11:31:37;3.60;;;3.30;;
80322;SDS011;69636;52.372;13.610;2023-11-21T11:34:15;3.90;;;2.40;;
80322;SDS011;69636;52.372;13.610;2023-11-21T11:36:53;3.67;;;2.65;;
80322;SDS011;69636;52.372;13.610;2023-11-21T11:39:26;3.08;;;2.17;;
80322;SDS011;69636;52.372;13.610;2023-11-21T11:41:55;3.72;;;3.30;;
80322;SDS011;69636;52.372;13.610;2023-11-21T11:47:29;4.30;;;3.28;;
80322;SDS011;69636;52.372;13.610;2023-11-21T11:49:59;6.10;;;5.53;;
80322;SDS011;69636;52.372;13.610;2023-11-21T11:52:32;3.35;;;3.05;;
80322;SDS011;69636;52.372;13.610;2023-11-21T11:55:07;3.50;;;3.20;;
80322;SDS011;69636;52.372;13.610;2023-11-21T11:57:37;3.28;;;3.03;;
80322;SDS011;69636;52.372;13.610;2023-11-21T12:00:09;3.30;;;2.95;;
80322;SDS011;69636;52.372;13.610;2023-11-21T12:02:38;4.03;;;3.15;;
80322;SDS011;69636;52.372;13.610;2023-11-21T12:05:09;5.18;;;2.75;;
80322;SDS011;69636;52.372;13.610;2023-11-21T12:07:43;4.10;;;3.33;;
80322;SDS011;69636;52.372;13.610;2023-11-21T12:10:13;3.97;;;2.53;;
80322;SDS011;69636;52.372;13.610;2023-11-21T12:12:43;4.28;;;3.90;;
80322;SDS011;69636;52.372;13.610;2023-11-21T12:15:12;3.15;;;2.85;;
80322;SDS011;69636;52.372;13.610;2023-11-21T12:17:41;3.10;;;2.40;;
80322;SDS011;69636;52.372;13.610;2023-11-21T12:20:09;2.92;;;1.98;;
80322;SDS011;69636;52.372;13.610;2023-11-21T12:22:37;4.15;;;2.83;;
80322;SDS011;69636;52.372;13.610;2023-11-21T12:25:05;4.90;;;2.65;;
80322;SDS011;69636;52.372;13.610;2023-11-21T12:27:33;2.88;;;2.55;;
80322;SDS011;69636;52.372;13.610;2023-11-21T12:30:02;2.95;;;2.47;;
80322;SDS011;69636;52.372;13.610;2023-11-21T12:32:30;2.53;;;1.70;;
80322;SDS011;69636;52.372;13.610;2023-11-21T12:34:57;2.90;;;2.00;;
80322;SDS011;69636;52.372;13.610;2023-11-21T12:37:24;3.72;;;3.28;;
80322;SDS011;69636;52.372;13.610;2023-11-21T12:39:52;2.28;;;1.80;;
80322;SDS011;69636;52.372;13.610;2023-11-21T12:42:19;3.47;;;3.05;;
80322;SDS011;69636;52.372;13.610;2023-11-21T12:44:46;4.55;;;3.28;;
80322;SDS011;69636;52.372;13.610;2023-11-21T12:47:17;3.40;;;2.90;;
80322;SDS011;69636;52.372;13.610;2023-11-21T12:49:45;3.88;;;3.47;;
80322;SDS011;69636;52.372;13.610;2023-11-21T12:52:12;4.15;;;2.47;;
80322;SDS011;69636;52.372;13.610;2023-11-21T12:54:39;3.55;;;2.67;;
80322;SDS011;69636;52.372;13.610;2023-11-21T12:57:07;4.47;;;3.70;;
80322;SDS011;69636;52.372;13.610;2023-11-21T12:59:34;3.47;;;3.13;;
80322;SDS011;69636;52.372;13.610;2023-11-21T13:02:02;3.97;;;3.67;;
80322;SDS011;69636;52.372;13.610;2023-11-21T13:04:33;4.50;;;4.10;;
80322;SDS011;69636;52.372;13.610;2023-11-21T13:07:04;3.75;;;3.40;;
80322;SDS011;69636;52.372;13.610;2023-11-21T13:09:32;3.75;;;3.38;;
80322;SDS011;69636;52.372;13.610;2023-11-21T13:12:00;3.80;;;3.40;;
80322;SDS011;69636;52.372;13.610;2023-11-21T13:16:55;4.35;;;3.20;;
80322;SDS011;69636;52.372;13.610;2023-11-21T13:19:23;5.28;;;4.07;;
80322;SDS011;69636;52.372;13.610;2023-11-21T13:21:52;4.53;;;3.83;;
80322;SDS011;69636;52.372;13.610;2023-11-21T13:24:19;4.88;;;3.70;;
80322;SDS011;69636;52.372;13.610;2023-11-21T13:26:47;5.88;;;4.38;;
80322;SDS011;69636;52.372;13.610;2023-11-21T13:29:14;6.35;;;5.40;;
80322;SDS011;69636;52.372;13.610;2023-11-21T13:31:41;5.88;;;4.50;;
80322;SDS011;69636;52.372;13.610;2023-11-21T13:34:09;6.60;;;5.95;;
80322;SDS011;69636;52.372;13.610;2023-11-21T13:36:36;6.90;;;5.65;;
80322;SDS011;69636;52.372;13.610;2023-11-21T13:39:05;6.68;;;5.45;;
80322;SDS011;69636;52.372;13.610;2023-11-21T13:41:32;6.00;;;5.03;;
80322;SDS011;69636;52.372;13.610;2023-11-21T13:43:59;7.97;;;7.07;;
80322;SDS011;69636;52.372;13.610;2023-11-21T13:46:27;7.95;;;7.25;;
80322;SDS011;69636;52.372;13.610;2023-11-21T13:48:54;5.28;;;4.43;;
80322;SDS011;69636;52.372;13.610;2023-11-21T13:51:22;6.80;;;4.68;;
80322;SDS011;69636;52.372;13.610;2023-11-21T13:54:03;7.28;;;5.90;;
80322;SDS011;69636;52.372;13.610;2023-11-21T13:56:31;7.03;;;5.07;;
80322;SDS011;69636;52.372;13.610;2023-11-21T13:58:59;8.10;;;7.30;;
80322;SDS011;69636;52.372;13.610;2023-11-21T14:01:26;7.22;;;6.50;;
80322;SDS011;69636;52.372;13.610;2023-11-21T14:03:54;8.05;;;5.38;;
80322;SDS011;69636;52.372;13.610;2023-11-21T14:06:21;6.28;;;5.18;;
80322;SDS011;69636;52.372;13.610;2023-11-21T14:08:48;6.32;;;5.53;;
80322;SDS011;69636;52.372;13.610;2023-11-21T14:11:17;6.57;;;4.63;;
80322;SDS011;69636;52.372;13.610;2023-11-21T14:13:44;6.40;;;4.53;;
80322;SDS011;69636;52.372;13.610;2023-11-21T14:16:12;7.93;;;5.45;;
80322;SDS011;69636;52.372;13.610;2023-11-21T14:18:39;7.50;;;6.43;;
80322;SDS011;69636;52.372;13.610;2023-11-21T14:21:06;8.18;;;5.93;;
80322;SDS011;69636;52.372;13.610;2023-11-21T14:23:34;8.02;;;5.75;;
80322;SDS011;69636;52.372;13.610;2023-11-21T14:26:01;6.55;;;5.20;;
80322;SDS011;69636;52.372;13.610;2023-11-21T14:28:30;7.95;;;6.32;;
80322;SDS011;69636;52.372;13.610;2023-11-21T14:33:24;7.00;;;4.72;;
80322;SDS011;69636;52.372;13.610;2023-11-21T14:35:51;9.30;;;5.80;;
80322;SDS011;69636;52.372;13.610;2023-11-21T14:38:19;8.25;;;6.15;;
80322;SDS011;69636;52.372;13.610;2023-11-21T14:40:46;8.23;;;5.75;;
80322;SDS011;69636;52.372;13.610;2023-11-21T14:43:13;8.77;;;5.50;;
80322;SDS011;69636;52.372;13.610;2023-11-21T14:45:42;8.55;;;7.50;;